Latest Weather Observations for Charles Point

IDD60901

Issued at 7:31 am CST Tuesday 7 July 2015 (issued every 10 minutes, with the page automatically refreshed every 10 minutes)

About weather observations | Map of Darwin area stations | Latest observations for Darwin area | Other Formats
Station Details ID: 014031 Name: CHARLES POINT Lat: -12.39 Lon: 130.63 Height: 14.0 m
Data from the previous 72 hours. | See also: Recent months for locations in Northern Territory
Date/Time
CST
Tmp

°C
App
Tmp
°C
Dew
Point
°C
Rel
Hum
%
Delta-T

°C
Wind Press
QNH
hPa
Press
MSL
hPa
Rain
since
9 am
mm
Dir
 
Spd
km/h
Gust
km/h
Spd
kts
Gust
kts
07/07:30am 24.2 24.5 19.7 76 2.9 E 17 26 9 14 1013.5 1013.4 0.0
07/07:00am 24.0 25.8 20.3 80 2.4 ESE 11 28 6 15 1013.4 1013.3 0.0
07/06:30am 23.2 25.7 20.3 84 1.9 SE 7 11 4 6 1013.0 1012.9 0.0
07/06:00am 23.2 25.7 20.3 84 1.9 SE 7 13 4 7 1012.7 1012.6 0.0
07/05:30am 23.2 25.6 20.0 82 2.1 SSE 7 11 4 6 1012.9 1012.8 0.0
07/05:00am 23.4 25.3 19.8 80 2.3 SE 9 13 5 7 1012.7 1012.6 0.0
07/04:30am 22.9 25.2 19.9 83 1.9 SSE 7 11 4 6 1012.2 1012.1 0.0
07/04:00am 22.6 24.9 19.8 84 1.8 SSE 7 11 4 6 1012.1 1012.0 0.0
07/03:30am 22.6 24.5 19.8 84 1.8 S 9 11 5 6 1012.0 1011.9 0.0
07/03:00am 22.5 24.5 19.9 85 1.7 S 9 13 5 7 1011.9 1011.8 0.0
07/02:30am 22.7 24.7 19.9 84 1.8 S 9 13 5 7 1012.0 1011.9 0.0
07/02:00am 22.8 25.0 19.6 82 2.0 S 7 13 4 7 1012.1 1012.0 0.0
07/01:30am 22.8 24.6 19.6 82 2.0 SSE 9 11 5 6 1012.2 1012.1 0.0
07/01:00am 23.0 25.3 19.8 82 2.1 S 7 11 4 6 1012.5 1012.4 0.0
07/12:30am 23.0 25.4 20.1 84 1.9 S 7 9 4 5 1012.5 1012.4 0.0
07/12:00am 23.3 26.1 20.8 86 1.6 S 7 9 4 5 1012.8 1012.7 0.0
 
Date/Time
CST
Tmp

°C
App
Tmp
°C
Dew
Point
°C
Rel
Hum
%
Delta-T

°C
Wind Press
QNH
hPa
Press
MSL
hPa
Rain
since
9 am
mm
Dir
 
Spd
km/h
Gust
km/h
Spd
kts
Gust
kts
06/11:30pm 23.6 26.7 21.5 88 1.4 S 7 9 4 5 1012.9 1012.8 0.0
06/11:00pm 24.1 28.5 21.4 85 1.8 CALM 0 0 0 0 1012.8 1012.7 0.0
06/10:30pm 25.0 28.6 21.3 80 2.4 NE 4 7 2 4 1012.8 1012.7 0.0
06/10:00pm 26.0 29.5 22.1 79 2.6 NE 7 11 4 6 1012.7 1012.6 0.0
06/09:30pm 26.1 28.6 21.7 77 2.9 NE 11 15 6 8 1012.5 1012.4 0.0
06/09:00pm 26.1 28.6 21.7 77 2.9 NE 11 17 6 9 1012.3 1012.2 0.0
06/08:30pm 26.1 28.1 21.5 76 3.1 NE 13 17 7 9 1012.2 1012.1 0.0
06/08:00pm 26.1 27.5 21.1 74 3.3 NE 15 22 8 12 1011.9 1011.8 0.0
06/07:30pm 26.2 27.3 21.2 74 3.3 NE 17 24 9 13 1011.6 1011.5 0.0
06/07:00pm 26.2 27.3 21.2 74 3.3 NE 17 22 9 12 1011.3 1011.2 0.0
06/06:30pm 26.3 27.3 21.1 73 3.4 NE 17 22 9 12 1011.1 1011.0 0.0
06/06:00pm 26.7 26.9 20.5 69 4.1 NE 20 28 11 15 1010.8 1010.7 0.0
06/05:30pm 26.6 26.2 20.9 71 3.8 NNE 24 33 13 18 1010.6 1010.5 0.0
06/05:00pm 26.8 27.2 20.9 70 3.9 NNE 20 28 11 15 1010.6 1010.5 0.0
06/04:30pm 27.2 27.0 20.5 67 4.4 NNE 22 32 12 17 1010.5 1010.4 0.0
06/04:00pm 27.2 27.8 21.0 69 4.1 NNE 19 32 10 17 1010.6 1010.5 0.0
06/03:30pm 27.9 27.7 21.2 67 4.5 NNE 24 32 13 17 1010.7 1010.6 0.0
06/03:00pm 27.6 28.8 21.4 69 4.1 NNE 17 24 9 13 1010.7 1010.6 0.0
06/02:30pm 28.6 30.5 20.6 62 5.3 NE 11 15 6 8 1010.9 1010.8 0.0
06/02:00pm 28.7 29.9 20.7 62 5.3 NE 15 20 8 11 1011.4 1011.3 0.0
06/01:30pm 29.0 29.6 20.2 59 5.8 ENE 17 24 9 13 1011.7 1011.6 0.0
06/01:00pm 29.3 31.2 20.5 59 5.8 ENE 11 22 6 12 1012.0 1011.9 0.0
06/12:30pm 29.0 30.2 19.9 58 6.0 E 13 20 7 11 1012.6 1012.5 0.0
06/12:00pm 28.5 29.6 19.7 59 5.7 ENE 13 20 7 11 1013.1 1013.0 0.0
06/11:30am 28.3 29.3 19.5 59 5.7 E 13 24 7 13 1013.3 1013.2 0.0
06/11:00am 27.2 26.3 17.7 56 6.0 E 19 28 10 15 1013.7 1013.6 0.0
06/10:30am 27.0 26.2 18.0 58 5.7 E 19 28 10 15 1013.9 1013.8 0.0
06/10:00am 26.6 26.1 17.9 59 5.5 E 17 28 9 15 1014.0 1013.9 0.0
06/09:30am 26.1 25.9 18.5 63 4.8 E 17 28 9 15 1014.1 1014.0 0.0
06/09:00am 25.6 25.4 18.5 65 4.5 E 17 28 9 15 1014.0 1013.9 0.0
06/08:30am 25.1 25.8 19.7 72 3.5 E 15 32 8 17 1013.9 1013.8 0.0
06/08:00am 24.8 26.6 21.1 80 2.4 E 13 20 7 11 1013.7 1013.6 0.0
06/07:30am 24.3 25.9 20.8 81 2.3 ENE 13 24 7 13 1013.5 1013.4 0.0
06/07:00am 24.3 26.4 21.0 82 2.2 E 11 22 6 12 1012.9 1012.8 0.0
06/06:30am 24.4 26.1 20.9 81 2.3 E 13 26 7 14 1012.5 1012.4 0.0
06/06:00am 24.5 26.6 21.0 81 2.3 ENE 11 19 6 10 1012.7 1012.6 0.0
06/05:30am 22.0 24.1 19.0 83 1.9 ESE 6 9 3 5 1012.9 1012.8 0.0
06/05:00am 20.8 23.1 17.8 83 1.9 N 2 4 1 2 1012.9 1012.8 0.0
06/04:30am 20.3 22.8 17.3 83 1.8 CALM 0 4 0 2 1012.4 1012.3 0.0
06/04:00am 20.2 22.6 17.0 82 1.9 CALM 0 0 0 0 1012.4 1012.3 0.0
06/03:30am 20.5 22.9 17.1 81 2.1 CALM 0 0 0 0 1012.4 1012.3 0.0
06/03:00am 21.0 23.4 17.0 78 2.4 CALM 0 0 0 0 1012.6 1012.5 0.0
06/02:30am 22.1 24.1 17.0 73 3.1 N 2 4 1 2 1012.8 1012.7 0.0
06/02:00am 22.1 24.4 16.8 72 3.2 CALM 0 0 0 0 1012.6 1012.5 0.0
06/01:30am 23.3 24.5 17.3 69 3.7 S 7 13 4 7 1012.4 1012.3 0.0
06/01:00am 23.7 24.7 17.7 69 3.7 S 9 17 5 9 1012.6 1012.5 0.0
06/12:30am 23.6 25.0 17.8 70 3.6 S 7 11 4 6 1012.7 1012.6 0.0
06/12:00am 23.1 24.6 17.6 71 3.4 SSW 6 7 3 4 1012.8 1012.7 0.0
 
Date/Time
CST
Tmp

°C
App
Tmp
°C
Dew
Point
°C
Rel
Hum
%
Delta-T

°C
Wind Press
QNH
hPa
Press
MSL
hPa
Rain
since
9 am
mm
Dir
 
Spd
km/h
Gust
km/h
Spd
kts
Gust
kts
05/11:30pm 23.3 24.8 17.7 71 3.5 SSW 6 7 3 4 1013.2 1013.1 0.0
05/11:00pm 23.2 25.1 17.7 71 3.4 SW 4 4 2 2 1013.4 1013.3 0.0
05/10:30pm 23.8 25.8 17.8 69 3.7 SW 4 6 2 3 1013.7 1013.6 0.0
05/10:00pm 24.1 26.8 17.8 68 3.9 CALM 0 4 0 2 1013.8 1013.7 0.0
05/09:30pm 24.4 27.2 17.9 67 4.1 CALM 0 0 0 0 1013.8 1013.7 0.0
05/09:00pm 24.5 27.2 17.7 66 4.2 CALM 0 0 0 0 1013.6 1013.5 0.0
05/08:30pm 24.8 27.5 17.8 65 4.4 CALM 0 2 0 1 1013.5 1013.4 0.0
05/08:00pm 25.1 27.7 17.6 63 4.7 CALM 0 0 0 0 1013.2 1013.1 0.0
05/07:30pm 25.7 27.5 17.4 60 5.2 NW 4 7 2 4 1012.7 1012.6 0.0
05/07:00pm 25.8 27.2 17.4 59 5.2 NNW 6 7 3 4 1012.7 1012.6 0.0
05/06:30pm 25.7 26.5 17.4 60 5.2 NNW 9 11 5 6 1012.7 1012.6 0.0
05/06:00pm 25.7 27.2 17.6 61 5.1 N 6 9 3 5 1012.4 1012.3 0.0
05/05:30pm 25.8 27.2 17.4 59 5.3 NNW 6 9 3 5 1012.3 1012.2 0.0
05/05:00pm 25.9 26.7 17.3 59 5.4 NNW 9 11 5 6 1012.2 1012.1 0.0
05/04:30pm 26.7 27.8 18.0 59 5.5 NNW 9 13 5 7 1012.2 1012.1 0.0
05/04:00pm 27.6 28.7 18.0 55 6.1 NNW 9 11 5 6 1012.1 1012.0 0.0
05/03:30pm 27.0 27.4 16.3 52 6.6 N 9 11 5 6 1012.3 1012.2 0.0
05/03:00pm 26.9 27.0 15.6 50 6.9 N 9 11 5 6 1012.6 1012.5 0.0
05/02:30pm 27.6 28.3 16.2 49 7.0 NNE 7 13 4 7 1013.0 1012.9 0.0
05/02:00pm 27.1 27.2 15.5 49 7.1 NNE 9 13 5 7 1013.5 1013.4 0.0
05/01:30pm 26.9 26.9 15.3 49 7.0 NNE 9 13 5 7 1013.8 1013.7 0.0
05/01:00pm 28.4 28.7 15.0 44 8.1 NE 7 9 4 5 1014.2 1014.1 0.0
05/12:30pm 28.2 28.3 14.4 42 8.3 ENE 7 13 4 7 1014.5 1014.4 0.0
05/12:00pm 27.5 27.2 13.4 41 8.3 ENE 7 13 4 7 1014.9 1014.8 0.0
05/11:30am 27.2 27.2 14.2 44 7.8 ENE 7 13 4 7 1015.3 1015.2 0.0
05/11:00am 26.6 25.3 11.1 38 8.8 ESE 9 17 5 9 1015.4 1015.3 0.0
05/10:30am 25.9 24.5 10.9 39 8.4 SE 9 13 5 7 1015.3 1015.2 0.0
05/10:00am 24.5 23.6 11.5 44 7.3 SE 7 15 4 8 1015.3 1015.2 0.0
05/09:30am 23.7 22.6 12.0 48 6.6 SSE 9 19 5 10 1015.4 1015.3 0.0
05/09:00am 22.1 21.4 13.2 57 5.1 SSE 9 15 5 8 1015.5 1015.4 0.0
05/08:30am 21.1 20.6 12.8 59 4.7 SE 7 13 4 7 1015.6 1015.5 0.0
05/08:00am 20.1 18.4 11.3 57 4.8 SSE 11 19 6 10 1015.3 1015.2 0.0
05/07:30am 19.4 17.6 10.9 58 4.6 SSE 11 17 6 9 1015.0 1014.9 0.0
05/07:00am 19.6 18.2 12.1 62 4.2 S 11 17 6 9 1014.5 1014.4 0.0
05/06:30am 19.4 18.6 14.0 71 3.1 S 11 15 6 8 1014.1 1014.0 0.0
05/06:00am 19.2 18.9 15.5 79 2.2 S 11 15 6 8 1013.9 1013.8 0.0
05/05:30am 18.5 18.8 16.1 86 1.4 S 9 13 5 7 1013.7 1013.6 0.0
05/05:00am 18.8 19.5 16.2 85 1.6 S 7 11 4 6 1013.5 1013.4 0.0
05/04:30am 19.5 20.3 17.3 87 1.3 S 9 13 5 7 1013.4 1013.3 0.0
05/04:00am 19.3 20.4 17.1 87 1.3 S 7 9 4 5 1013.4 1013.3 0.0
05/03:30am 19.1 20.8 16.3 84 1.7 SSW 2 4 1 2 1013.4 1013.3 0.0
05/03:00am 19.9 21.0 16.7 82 1.9 SSW 6 7 3 4 1013.2 1013.1 0.0
05/02:30am 19.9 21.0 16.5 81 2.0 SW 6 9 3 5 1013.3 1013.2 0.0
05/02:00am 19.4 20.2 15.9 80 2.1 SW 6 7 3 4 1013.5 1013.4 0.0
05/01:30am 19.6 20.4 15.9 79 2.2 SW 6 7 3 4 1013.7 1013.6 0.0
05/01:00am 19.3 20.2 16.0 81 2.0 SW 6 7 3 4 1013.9 1013.8 0.0
05/12:30am 19.2 20.4 15.9 81 2.0 SW 4 6 2 3 1014.0 1013.9 0.0
05/12:00am 19.4 20.7 16.1 81 2.0 WSW 4 6 2 3 1014.0 1013.9 0.0
 
Date/Time
CST
Tmp

°C
App
Tmp
°C
Dew
Point
°C
Rel
Hum
%
Delta-T

°C
Wind Press
QNH
hPa
Press
MSL
hPa
Rain
since
9 am
mm
Dir
 
Spd
km/h
Gust
km/h
Spd
kts
Gust
kts
04/11:30pm 19.6 20.8 15.9 79 2.2 WSW 4 6 2 3 1014.0 1013.9 0.0
04/11:00pm 20.2 21.4 16.0 77 2.5 WSW 4 6 2 3 1014.1 1014.0 0.0
04/10:30pm 19.9 21.1 16.0 78 2.3 WSW 4 6 2 3 1014.2 1014.1 0.0
04/10:00pm 20.1 21.2 15.7 76 2.6 WSW 4 6 2 3 1014.3 1014.2 0.0
04/09:30pm 20.5 21.6 15.5 73 3.0 W 4 6 2 3 1014.1 1014.0 0.0
04/09:00pm 21.1 22.1 15.4 70 3.4 W 4 7 2 4 1013.9 1013.8 0.0
04/08:30pm 21.3 22.3 15.4 69 3.5 WSW 4 6 2 3 1013.5 1013.4 0.0
04/08:00pm 21.8 22.7 15.2 66 3.9 WSW 4 6 2 3 1013.1 1013.0 0.0
04/07:30pm 22.5 23.4 15.1 63 4.4 WSW 4 6 2 3 1012.9 1012.8 0.0
04/07:00pm 23.0 23.8 14.8 60 4.9 WSW 4 7 2 4 1012.7 1012.6 0.0
04/06:30pm 24.8 25.9 14.6 53 6.1 W 2 4 1 2 1012.4 1012.3 0.0
04/06:00pm 26.7 27.2 15.1 49 7.0 NNW 6 9 3 5 1012.0 1011.9 0.0
04/05:30pm 26.8 27.1 14.9 48 7.2 N 7 9 4 5 1011.8 1011.7 0.0
04/05:00pm 26.4 25.9 15.8 52 6.5 N 13 17 7 9 1011.6 1011.5 0.0
04/04:30pm 26.8 26.5 15.5 50 6.9 NNE 11 19 6 10 1011.3 1011.2 0.0
04/04:00pm 26.9 27.1 16.8 54 6.3 NNE 11 19 6 10 1011.3 1011.2 0.0
04/03:30pm 27.4 26.8 15.7 48 7.2 NNE 13 20 7 11 1011.3 1011.2 0.0
04/03:00pm 27.9 27.5 16.2 49 7.2 NNE 13 20 7 11 1011.6 1011.5 0.0
04/02:30pm 28.2 27.9 16.5 49 7.3 NNE 13 17 7 9 1012.1 1012.0 0.0
04/02:00pm 27.0 26.0 14.7 47 7.4 NNE 13 19 7 10 1012.6 1012.5 0.0
04/01:30pm 28.6 27.8 14.1 41 8.7 NNE 11 15 6 8 1013.1 1013.0 0.0
04/01:00pm 27.8 26.9 13.7 42 8.4 NE 11 17 6 9 1013.5 1013.4 0.0
04/12:30pm 27.9 26.8 14.2 43 8.2 ENE 13 20 7 11 1013.9 1013.8 0.0
04/12:00pm 27.7 26.9 15.0 45 7.7 ENE 13 20 7 11 1014.3 1014.2 0.0
04/11:30am 28.0 26.9 13.1 39 8.8 E 11 20 6 11 1014.8 1014.7 0.0
04/11:00am 26.7 25.2 13.1 43 8.0 E 13 20 7 11 1015.1 1015.0 0.0
04/10:30am 25.2 23.5 12.4 45 7.4 E 13 22 7 12 1015.4 1015.3 0.0
04/10:00am 25.2 23.5 12.4 45 7.4 ESE 13 22 7 12 1015.6 1015.5 0.0
04/09:30am 24.6 22.3 11.9 45 7.2 ESE 15 22 8 12 1015.8 1015.7 0.0
04/09:00am 24.0 22.2 12.0 47 6.8 ESE 13 24 7 13 1015.9 1015.8 0.0
04/08:30am 22.8 21.5 12.4 52 5.9 ESE 11 17 6 9 1015.6 1015.5 0.0
04/08:00am 22.1 20.6 11.8 52 5.8 ESE 11 17 6 9 1015.3 1015.2 0.0

Latest Capital City Observations: Canberra | Sydney | Melbourne | Brisbane | Adelaide | Perth | Hobart | Darwin

Other Formats:

Comma delimited format used in spreadsheet applications
http://www.bom.gov.au/fwo/IDD60901/IDD60901.99510.axf

JavaScript Object Notation format (JSON) in row-major order
http://www.bom.gov.au/fwo/IDD60901/IDD60901.99510.json